sensor_id;sensor_type;location;lat;lon;timestamp;P1;durP1;ratioP1;P2;durP2;ratioP2
22429;SDS011;11382;48.086;11.632;2024-03-02T00:00:49;12.88;;;9.32;;
22429;SDS011;11382;48.086;11.632;2024-03-02T00:03:18;13.15;;;8.88;;
22429;SDS011;11382;48.086;11.632;2024-03-02T00:05:50;13.25;;;9.07;;
22429;SDS011;11382;48.086;11.632;2024-03-02T00:08:22;18.40;;;10.98;;
22429;SDS011;11382;48.086;11.632;2024-03-02T00:10:53;14.75;;;10.18;;
22429;SDS011;11382;48.086;11.632;2024-03-02T00:13:25;14.82;;;10.75;;
22429;SDS011;11382;48.086;11.632;2024-03-02T00:15:54;18.02;;;10.88;;
22429;SDS011;11382;48.086;11.632;2024-03-02T00:18:25;16.48;;;10.77;;
22429;SDS011;11382;48.086;11.632;2024-03-02T00:20:55;16.73;;;10.85;;
22429;SDS011;11382;48.086;11.632;2024-03-02T00:23:24;14.88;;;10.38;;
22429;SDS011;11382;48.086;11.632;2024-03-02T00:25:58;16.33;;;11.02;;
22429;SDS011;11382;48.086;11.632;2024-03-02T00:28:27;16.30;;;11.05;;
22429;SDS011;11382;48.086;11.632;2024-03-02T00:31:02;15.70;;;10.20;;
22429;SDS011;11382;48.086;11.632;2024-03-02T00:33:32;15.25;;;10.60;;
22429;SDS011;11382;48.086;11.632;2024-03-02T00:36:02;14.95;;;9.82;;
22429;SDS011;11382;48.086;11.632;2024-03-02T00:38:31;16.33;;;11.00;;
22429;SDS011;11382;48.086;11.632;2024-03-02T00:41:04;14.82;;;10.05;;
22429;SDS011;11382;48.086;11.632;2024-03-02T00:43:38;16.20;;;10.98;;
22429;SDS011;11382;48.086;11.632;2024-03-02T00:46:15;14.77;;;10.25;;
22429;SDS011;11382;48.086;11.632;2024-03-02T00:48:48;17.02;;;11.10;;
22429;SDS011;11382;48.086;11.632;2024-03-02T00:51:21;16.20;;;11.18;;
22429;SDS011;11382;48.086;11.632;2024-03-02T00:53:50;15.60;;;10.20;;
22429;SDS011;11382;48.086;11.632;2024-03-02T00:56:23;13.90;;;9.68;;
22429;SDS011;11382;48.086;11.632;2024-03-02T00:58:51;16.02;;;10.95;;
22429;SDS011;11382;48.086;11.632;2024-03-02T01:01:20;15.02;;;10.27;;
22429;SDS011;11382;48.086;11.632;2024-03-02T01:03:49;14.85;;;10.25;;
22429;SDS011;11382;48.086;11.632;2024-03-02T01:06:17;14.57;;;9.65;;
22429;SDS011;11382;48.086;11.632;2024-03-02T01:08:46;13.63;;;9.55;;
22429;SDS011;11382;48.086;11.632;2024-03-02T01:11:18;16.00;;;10.60;;
22429;SDS011;11382;48.086;11.632;2024-03-02T01:13:50;12.77;;;9.98;;
22429;SDS011;11382;48.086;11.632;2024-03-02T01:16:19;15.63;;;10.38;;
22429;SDS011;11382;48.086;11.632;2024-03-02T01:18:47;14.90;;;9.68;;
22429;SDS011;11382;48.086;11.632;2024-03-02T01:21:16;14.38;;;9.70;;
22429;SDS011;11382;48.086;11.632;2024-03-02T01:23:44;12.13;;;9.25;;
22429;SDS011;11382;48.086;11.632;2024-03-02T01:26:12;14.88;;;9.35;;
22429;SDS011;11382;48.086;11.632;2024-03-02T01:28:40;10.73;;;8.48;;
22429;SDS011;11382;48.086;11.632;2024-03-02T01:31:10;15.85;;;9.00;;
22429;SDS011;11382;48.086;11.632;2024-03-02T01:33:38;12.48;;;8.50;;
22429;SDS011;11382;48.086;11.632;2024-03-02T01:36:06;12.45;;;8.50;;
22429;SDS011;11382;48.086;11.632;2024-03-02T01:38:35;11.23;;;7.57;;
22429;SDS011;11382;48.086;11.632;2024-03-02T01:41:03;10.10;;;7.85;;
22429;SDS011;11382;48.086;11.632;2024-03-02T01:43:31;10.50;;;7.22;;
22429;SDS011;11382;48.086;11.632;2024-03-02T01:45:59;10.48;;;7.07;;
22429;SDS011;11382;48.086;11.632;2024-03-02T01:48:29;9.82;;;7.13;;
22429;SDS011;11382;48.086;11.632;2024-03-02T01:50:58;9.75;;;7.35;;
22429;SDS011;11382;48.086;11.632;2024-03-02T01:53:27;12.95;;;7.85;;
22429;SDS011;11382;48.086;11.632;2024-03-02T01:55:58;11.05;;;7.93;;
22429;SDS011;11382;48.086;11.632;2024-03-02T01:58:27;9.75;;;7.00;;
22429;SDS011;11382;48.086;11.632;2024-03-02T02:00:55;11.10;;;7.80;;
22429;SDS011;11382;48.086;11.632;2024-03-02T02:03:24;12.05;;;7.93;;
22429;SDS011;11382;48.086;11.632;2024-03-02T02:05:53;12.80;;;8.38;;
22429;SDS011;11382;48.086;11.632;2024-03-02T02:08:21;10.07;;;7.72;;
22429;SDS011;11382;48.086;11.632;2024-03-02T02:10:49;11.55;;;8.07;;
22429;SDS011;11382;48.086;11.632;2024-03-02T02:13:17;12.15;;;8.00;;
22429;SDS011;11382;48.086;11.632;2024-03-02T02:15:46;12.10;;;7.47;;
22429;SDS011;11382;48.086;11.632;2024-03-02T02:18:14;12.27;;;8.27;;
22429;SDS011;11382;48.086;11.632;2024-03-02T02:20:42;10.38;;;7.68;;
22429;SDS011;11382;48.086;11.632;2024-03-02T02:23:11;11.32;;;8.13;;
22429;SDS011;11382;48.086;11.632;2024-03-02T02:25:40;10.95;;;7.65;;
22429;SDS011;11382;48.086;11.632;2024-03-02T02:28:08;11.90;;;8.43;;
22429;SDS011;11382;48.086;11.632;2024-03-02T02:30:36;12.50;;;8.40;;
22429;SDS011;11382;48.086;11.632;2024-03-02T02:33:04;14.65;;;9.13;;
22429;SDS011;11382;48.086;11.632;2024-03-02T02:35:33;12.75;;;8.90;;
22429;SDS011;11382;48.086;11.632;2024-03-02T02:38:01;14.40;;;9.30;;
22429;SDS011;11382;48.086;11.632;2024-03-02T02:40:31;12.77;;;8.55;;
22429;SDS011;11382;48.086;11.632;2024-03-02T02:42:59;13.73;;;8.73;;
22429;SDS011;11382;48.086;11.632;2024-03-02T02:45:28;12.55;;;8.50;;
22429;SDS011;11382;48.086;11.632;2024-03-02T02:47:56;13.05;;;8.75;;
22429;SDS011;11382;48.086;11.632;2024-03-02T02:50:25;12.88;;;8.70;;
22429;SDS011;11382;48.086;11.632;2024-03-02T02:52:53;13.48;;;8.90;;
22429;SDS011;11382;48.086;11.632;2024-03-02T02:55:21;12.88;;;8.88;;
22429;SDS011;11382;48.086;11.632;2024-03-02T02:57:50;11.40;;;7.38;;
22429;SDS011;11382;48.086;11.632;2024-03-02T03:00:19;10.70;;;7.68;;
22429;SDS011;11382;48.086;11.632;2024-03-02T03:02:49;11.93;;;8.38;;
22429;SDS011;11382;48.086;11.632;2024-03-02T03:05:17;11.88;;;7.70;;
22429;SDS011;11382;48.086;11.632;2024-03-02T03:07:46;11.23;;;8.00;;
22429;SDS011;11382;48.086;11.632;2024-03-02T03:10:16;10.95;;;7.60;;
22429;SDS011;11382;48.086;11.632;2024-03-02T03:12:45;12.38;;;9.00;;
22429;SDS011;11382;48.086;11.632;2024-03-02T03:15:16;9.57;;;7.72;;
22429;SDS011;11382;48.086;11.632;2024-03-02T03:17:45;12.20;;;7.97;;
22429;SDS011;11382;48.086;11.632;2024-03-02T03:20:14;11.50;;;7.78;;
22429;SDS011;11382;48.086;11.632;2024-03-02T03:22:42;10.40;;;7.85;;
22429;SDS011;11382;48.086;11.632;2024-03-02T03:25:10;11.15;;;7.82;;
22429;SDS011;11382;48.086;11.632;2024-03-02T03:27:39;9.65;;;7.68;;
22429;SDS011;11382;48.086;11.632;2024-03-02T03:30:08;11.48;;;7.90;;
22429;SDS011;11382;48.086;11.632;2024-03-02T03:32:38;12.43;;;8.68;;
22429;SDS011;11382;48.086;11.632;2024-03-02T03:35:07;12.60;;;8.98;;
22429;SDS011;11382;48.086;11.632;2024-03-02T03:37:35;12.20;;;8.20;;
22429;SDS011;11382;48.086;11.632;2024-03-02T03:40:03;12.75;;;9.48;;
22429;SDS011;11382;48.086;11.632;2024-03-02T03:42:37;14.43;;;9.35;;
22429;SDS011;11382;48.086;11.632;2024-03-02T03:45:06;12.85;;;9.68;;
22429;SDS011;11382;48.086;11.632;2024-03-02T03:47:34;12.93;;;8.15;;
22429;SDS011;11382;48.086;11.632;2024-03-02T03:50:04;13.23;;;9.38;;
22429;SDS011;11382;48.086;11.632;2024-03-02T03:52:34;12.55;;;9.07;;
22429;SDS011;11382;48.086;11.632;2024-03-02T03:55:02;13.40;;;9.55;;
22429;SDS011;11382;48.086;11.632;2024-03-02T03:57:32;13.52;;;9.18;;
22429;SDS011;11382;48.086;11.632;2024-03-02T04:00:00;12.40;;;8.88;;
22429;SDS011;11382;48.086;11.632;2024-03-02T04:02:37;13.55;;;9.23;;
22429;SDS011;11382;48.086;11.632;2024-03-02T04:05:07;13.20;;;9.23;;
22429;SDS011;11382;48.086;11.632;2024-03-02T04:07:38;14.93;;;10.25;;
22429;SDS011;11382;48.086;11.632;2024-03-02T04:10:07;13.68;;;9.52;;
22429;SDS011;11382;48.086;11.632;2024-03-02T04:12:36;14.70;;;9.70;;
22429;SDS011;11382;48.086;11.632;2024-03-02T04:15:05;12.57;;;9.13;;
22429;SDS011;11382;48.086;11.632;2024-03-02T04:17:33;15.35;;;9.38;;
22429;SDS011;11382;48.086;11.632;2024-03-02T04:20:02;12.13;;;9.38;;
22429;SDS011;11382;48.086;11.632;2024-03-02T04:22:34;17.25;;;10.30;;
22429;SDS011;11382;48.086;11.632;2024-03-02T04:25:03;12.68;;;9.45;;
22429;SDS011;11382;48.086;11.632;2024-03-02T04:27:33;16.58;;;9.98;;
22429;SDS011;11382;48.086;11.632;2024-03-02T04:30:02;17.05;;;11.38;;
22429;SDS011;11382;48.086;11.632;2024-03-02T04:32:32;15.60;;;10.40;;
22429;SDS011;11382;48.086;11.632;2024-03-02T04:35:00;15.43;;;10.80;;
22429;SDS011;11382;48.086;11.632;2024-03-02T04:37:28;16.38;;;11.15;;
22429;SDS011;11382;48.086;11.632;2024-03-02T04:39:58;14.65;;;9.88;;
22429;SDS011;11382;48.086;11.632;2024-03-02T04:42:27;14.77;;;9.93;;
22429;SDS011;11382;48.086;11.632;2024-03-02T04:44:55;15.40;;;10.48;;
22429;SDS011;11382;48.086;11.632;2024-03-02T04:47:23;15.65;;;10.68;;
22429;SDS011;11382;48.086;11.632;2024-03-02T04:49:51;15.95;;;10.85;;
22429;SDS011;11382;48.086;11.632;2024-03-02T04:52:19;15.93;;;10.30;;
22429;SDS011;11382;48.086;11.632;2024-03-02T04:54:47;14.82;;;9.88;;
22429;SDS011;11382;48.086;11.632;2024-03-02T04:57:34;16.23;;;11.15;;
22429;SDS011;11382;48.086;11.632;2024-03-02T05:00:03;17.48;;;11.35;;
22429;SDS011;11382;48.086;11.632;2024-03-02T05:02:33;16.15;;;11.93;;
22429;SDS011;11382;48.086;11.632;2024-03-02T05:05:01;20.23;;;11.35;;
22429;SDS011;11382;48.086;11.632;2024-03-02T05:07:30;19.65;;;10.60;;
22429;SDS011;11382;48.086;11.632;2024-03-02T05:09:58;15.98;;;11.30;;
22429;SDS011;11382;48.086;11.632;2024-03-02T05:12:26;20.52;;;12.25;;
22429;SDS011;11382;48.086;11.632;2024-03-02T05:15:17;16.73;;;11.48;;
22429;SDS011;11382;48.086;11.632;2024-03-02T05:17:45;18.38;;;12.63;;
22429;SDS011;11382;48.086;11.632;2024-03-02T05:20:14;16.25;;;11.25;;
22429;SDS011;11382;48.086;11.632;2024-03-02T05:22:42;16.73;;;11.40;;
22429;SDS011;11382;48.086;11.632;2024-03-02T05:25:10;16.83;;;10.73;;
22429;SDS011;11382;48.086;11.632;2024-03-02T05:27:38;19.10;;;11.98;;
22429;SDS011;11382;48.086;11.632;2024-03-02T05:30:08;17.02;;;11.55;;
22429;SDS011;11382;48.086;11.632;2024-03-02T05:32:38;16.23;;;10.68;;
22429;SDS011;11382;48.086;11.632;2024-03-02T05:35:07;18.27;;;11.30;;
22429;SDS011;11382;48.086;11.632;2024-03-02T05:37:37;16.88;;;10.80;;
22429;SDS011;11382;48.086;11.632;2024-03-02T05:40:06;21.13;;;12.20;;
22429;SDS011;11382;48.086;11.632;2024-03-02T05:42:35;16.55;;;11.38;;
22429;SDS011;11382;48.086;11.632;2024-03-02T05:45:03;15.73;;;11.02;;
22429;SDS011;11382;48.086;11.632;2024-03-02T05:47:32;18.60;;;11.45;;
22429;SDS011;11382;48.086;11.632;2024-03-02T05:50:02;16.25;;;10.70;;
22429;SDS011;11382;48.086;11.632;2024-03-02T05:52:30;19.27;;;10.80;;
22429;SDS011;11382;48.086;11.632;2024-03-02T05:54:58;16.92;;;10.80;;
22429;SDS011;11382;48.086;11.632;2024-03-02T05:57:27;18.50;;;12.07;;
22429;SDS011;11382;48.086;11.632;2024-03-02T06:00:12;20.42;;;12.95;;
22429;SDS011;11382;48.086;11.632;2024-03-02T06:02:43;20.13;;;12.25;;
22429;SDS011;11382;48.086;11.632;2024-03-02T06:05:13;20.15;;;12.60;;
22429;SDS011;11382;48.086;11.632;2024-03-02T06:07:41;20.25;;;13.45;;
22429;SDS011;11382;48.086;11.632;2024-03-02T06:10:10;18.35;;;12.48;;
22429;SDS011;11382;48.086;11.632;2024-03-02T06:12:41;17.15;;;12.13;;
22429;SDS011;11382;48.086;11.632;2024-03-02T06:15:09;20.23;;;12.55;;
22429;SDS011;11382;48.086;11.632;2024-03-02T06:17:38;17.50;;;11.93;;
22429;SDS011;11382;48.086;11.632;2024-03-02T06:20:22;19.38;;;12.10;;
22429;SDS011;11382;48.086;11.632;2024-03-02T06:22:50;18.52;;;12.45;;
22429;SDS011;11382;48.086;11.632;2024-03-02T06:25:18;19.67;;;12.00;;
22429;SDS011;11382;48.086;11.632;2024-03-02T06:27:46;17.38;;;11.30;;
22429;SDS011;11382;48.086;11.632;2024-03-02T06:30:14;17.35;;;11.73;;
22429;SDS011;11382;48.086;11.632;2024-03-02T06:32:43;19.17;;;12.05;;
22429;SDS011;11382;48.086;11.632;2024-03-02T06:35:11;17.80;;;11.95;;
22429;SDS011;11382;48.086;11.632;2024-03-02T06:37:40;17.17;;;11.77;;
22429;SDS011;11382;48.086;11.632;2024-03-02T06:40:08;15.57;;;11.45;;
22429;SDS011;11382;48.086;11.632;2024-03-02T06:42:37;17.30;;;11.80;;
22429;SDS011;11382;48.086;11.632;2024-03-02T06:45:06;19.45;;;12.73;;
22429;SDS011;11382;48.086;11.632;2024-03-02T06:47:34;17.85;;;12.20;;
22429;SDS011;11382;48.086;11.632;2024-03-02T06:50:02;16.98;;;11.40;;
22429;SDS011;11382;48.086;11.632;2024-03-02T06:52:31;23.90;;;13.23;;
22429;SDS011;11382;48.086;11.632;2024-03-02T06:55:00;17.38;;;12.63;;
22429;SDS011;11382;48.086;11.632;2024-03-02T06:57:28;17.67;;;12.23;;
22429;SDS011;11382;48.086;11.632;2024-03-02T06:59:56;16.58;;;11.45;;
22429;SDS011;11382;48.086;11.632;2024-03-02T07:02:25;19.17;;;11.93;;
22429;SDS011;11382;48.086;11.632;2024-03-02T07:04:54;19.20;;;12.50;;
22429;SDS011;11382;48.086;11.632;2024-03-02T07:07:22;18.27;;;12.60;;
22429;SDS011;11382;48.086;11.632;2024-03-02T07:09:50;18.40;;;11.60;;
22429;SDS011;11382;48.086;11.632;2024-03-02T07:12:19;18.42;;;12.50;;
22429;SDS011;11382;48.086;11.632;2024-03-02T07:14:47;18.13;;;11.63;;
22429;SDS011;11382;48.086;11.632;2024-03-02T07:17:37;17.92;;;11.88;;
22429;SDS011;11382;48.086;11.632;2024-03-02T07:20:05;16.48;;;11.52;;
22429;SDS011;11382;48.086;11.632;2024-03-02T07:22:34;19.88;;;12.43;;
22429;SDS011;11382;48.086;11.632;2024-03-02T07:25:07;18.02;;;12.15;;
22429;SDS011;11382;48.086;11.632;2024-03-02T07:27:56;17.23;;;12.18;;
22429;SDS011;11382;48.086;11.632;2024-03-02T07:30:25;17.30;;;12.20;;
22429;SDS011;11382;48.086;11.632;2024-03-02T07:32:53;18.25;;;11.27;;
22429;SDS011;11382;48.086;11.632;2024-03-02T07:35:21;16.27;;;11.48;;
22429;SDS011;11382;48.086;11.632;2024-03-02T07:37:53;17.25;;;11.90;;
22429;SDS011;11382;48.086;11.632;2024-03-02T07:40:21;20.70;;;12.35;;
22429;SDS011;11382;48.086;11.632;2024-03-02T07:42:49;16.25;;;11.98;;
22429;SDS011;11382;48.086;11.632;2024-03-02T07:45:19;18.52;;;12.68;;
22429;SDS011;11382;48.086;11.632;2024-03-02T07:47:47;16.70;;;11.55;;
22429;SDS011;11382;48.086;11.632;2024-03-02T07:50:16;18.48;;;12.10;;
22429;SDS011;11382;48.086;11.632;2024-03-02T07:52:45;16.63;;;11.95;;
22429;SDS011;11382;48.086;11.632;2024-03-02T07:55:13;15.50;;;11.45;;
22429;SDS011;11382;48.086;11.632;2024-03-02T07:57:41;17.30;;;11.65;;
22429;SDS011;11382;48.086;11.632;2024-03-02T08:00:09;19.27;;;12.95;;
22429;SDS011;11382;48.086;11.632;2024-03-02T08:02:39;16.20;;;12.20;;
22429;SDS011;11382;48.086;11.632;2024-03-02T08:05:08;16.60;;;12.30;;
22429;SDS011;11382;48.086;11.632;2024-03-02T08:07:37;16.83;;;11.73;;
22429;SDS011;11382;48.086;11.632;2024-03-02T08:10:05;17.13;;;12.50;;
22429;SDS011;11382;48.086;11.632;2024-03-02T08:12:34;18.75;;;11.65;;
22429;SDS011;11382;48.086;11.632;2024-03-02T08:15:02;16.20;;;11.77;;
22429;SDS011;11382;48.086;11.632;2024-03-02T08:17:31;15.95;;;11.65;;
22429;SDS011;11382;48.086;11.632;2024-03-02T08:20:05;19.23;;;12.20;;
22429;SDS011;11382;48.086;11.632;2024-03-02T08:22:34;16.70;;;11.00;;
22429;SDS011;11382;48.086;11.632;2024-03-02T08:25:02;15.90;;;11.45;;
22429;SDS011;11382;48.086;11.632;2024-03-02T08:27:32;16.88;;;11.70;;
22429;SDS011;11382;48.086;11.632;2024-03-02T08:30:00;16.15;;;11.55;;
22429;SDS011;11382;48.086;11.632;2024-03-02T08:32:30;18.08;;;12.27;;
22429;SDS011;11382;48.086;11.632;2024-03-02T08:34:58;14.80;;;11.05;;
22429;SDS011;11382;48.086;11.632;2024-03-02T08:37:27;16.35;;;11.35;;
22429;SDS011;11382;48.086;11.632;2024-03-02T08:39:55;14.27;;;10.75;;
22429;SDS011;11382;48.086;11.632;2024-03-02T08:42:24;18.05;;;11.77;;
22429;SDS011;11382;48.086;11.632;2024-03-02T08:44:52;14.88;;;11.02;;
22429;SDS011;11382;48.086;11.632;2024-03-02T08:47:20;17.02;;;11.52;;
22429;SDS011;11382;48.086;11.632;2024-03-02T08:49:48;14.80;;;11.20;;
22429;SDS011;11382;48.086;11.632;2024-03-02T08:52:16;14.82;;;10.82;;
22429;SDS011;11382;48.086;11.632;2024-03-02T08:54:45;15.68;;;11.82;;
22429;SDS011;11382;48.086;11.632;2024-03-02T08:57:13;13.60;;;10.98;;
22429;SDS011;11382;48.086;11.632;2024-03-02T08:59:41;13.77;;;10.55;;
22429;SDS011;11382;48.086;11.632;2024-03-02T09:02:10;12.60;;;9.93;;
22429;SDS011;11382;48.086;11.632;2024-03-02T09:04:38;11.95;;;9.18;;
22429;SDS011;11382;48.086;11.632;2024-03-02T09:07:06;11.52;;;9.10;;
22429;SDS011;11382;48.086;11.632;2024-03-02T09:09:34;11.30;;;9.32;;
22429;SDS011;11382;48.086;11.632;2024-03-02T09:12:04;10.75;;;7.93;;
22429;SDS011;11382;48.086;11.632;2024-03-02T09:14:32;9.43;;;7.32;;
22429;SDS011;11382;48.086;11.632;2024-03-02T09:17:01;14.40;;;7.70;;
22429;SDS011;11382;48.086;11.632;2024-03-02T09:19:29;9.60;;;7.45;;
22429;SDS011;11382;48.086;11.632;2024-03-02T09:21:57;7.95;;;6.53;;
22429;SDS011;11382;48.086;11.632;2024-03-02T09:24:26;8.43;;;6.60;;
22429;SDS011;11382;48.086;11.632;2024-03-02T09:26:54;7.93;;;6.78;;
22429;SDS011;11382;48.086;11.632;2024-03-02T09:29:24;8.32;;;6.90;;
22429;SDS011;11382;48.086;11.632;2024-03-02T09:31:52;7.47;;;6.13;;
22429;SDS011;11382;48.086;11.632;2024-03-02T09:34:20;8.23;;;6.80;;
22429;SDS011;11382;48.086;11.632;2024-03-02T09:36:50;7.45;;;5.95;;
22429;SDS011;11382;48.086;11.632;2024-03-02T09:39:19;7.15;;;5.53;;
22429;SDS011;11382;48.086;11.632;2024-03-02T09:41:47;8.57;;;6.43;;
22429;SDS011;11382;48.086;11.632;2024-03-02T09:44:15;7.90;;;6.45;;
22429;SDS011;11382;48.086;11.632;2024-03-02T09:46:45;7.57;;;6.18;;
22429;SDS011;11382;48.086;11.632;2024-03-02T09:49:16;7.30;;;5.75;;
22429;SDS011;11382;48.086;11.632;2024-03-02T09:51:45;7.10;;;5.68;;
22429;SDS011;11382;48.086;11.632;2024-03-02T09:54:15;8.30;;;6.43;;
22429;SDS011;11382;48.086;11.632;2024-03-02T09:56:49;9.10;;;6.80;;
22429;SDS011;11382;48.086;11.632;2024-03-02T09:59:17;10.80;;;7.63;;
22429;SDS011;11382;48.086;11.632;2024-03-02T10:01:58;9.00;;;7.22;;
22429;SDS011;11382;48.086;11.632;2024-03-02T10:04:27;9.25;;;7.82;;
22429;SDS011;11382;48.086;11.632;2024-03-02T10:07:13;11.25;;;9.00;;
22429;SDS011;11382;48.086;11.632;2024-03-02T10:09:42;11.57;;;7.90;;
22429;SDS011;11382;48.086;11.632;2024-03-02T10:12:12;11.82;;;8.60;;
22429;SDS011;11382;48.086;11.632;2024-03-02T10:14:41;10.32;;;7.65;;
22429;SDS011;11382;48.086;11.632;2024-03-02T10:17:11;10.63;;;7.80;;
22429;SDS011;11382;48.086;11.632;2024-03-02T10:19:40;9.27;;;7.45;;
22429;SDS011;11382;48.086;11.632;2024-03-02T10:22:08;11.40;;;7.57;;
22429;SDS011;11382;48.086;11.632;2024-03-02T10:24:38;11.02;;;8.10;;
22429;SDS011;11382;48.086;11.632;2024-03-02T10:27:08;10.05;;;7.50;;
22429;SDS011;11382;48.086;11.632;2024-03-02T10:29:37;10.23;;;7.55;;
22429;SDS011;11382;48.086;11.632;2024-03-02T10:32:08;9.38;;;7.00;;
22429;SDS011;11382;48.086;11.632;2024-03-02T10:34:39;7.95;;;6.68;;
22429;SDS011;11382;48.086;11.632;2024-03-02T10:37:07;8.95;;;6.78;;
22429;SDS011;11382;48.086;11.632;2024-03-02T10:39:36;9.52;;;6.82;;
22429;SDS011;11382;48.086;11.632;2024-03-02T10:42:07;9.93;;;6.80;;
22429;SDS011;11382;48.086;11.632;2024-03-02T10:44:35;8.82;;;6.38;;
22429;SDS011;11382;48.086;11.632;2024-03-02T10:47:04;9.20;;;6.88;;
22429;SDS011;11382;48.086;11.632;2024-03-02T10:49:32;8.93;;;6.95;;
22429;SDS011;11382;48.086;11.632;2024-03-02T10:52:02;10.18;;;7.80;;
22429;SDS011;11382;48.086;11.632;2024-03-02T10:54:33;12.10;;;7.83;;
22429;SDS011;11382;48.086;11.632;2024-03-02T10:57:06;12.00;;;8.57;;
22429;SDS011;11382;48.086;11.632;2024-03-02T10:59:37;11.25;;;8.18;;
22429;SDS011;11382;48.086;11.632;2024-03-02T11:02:10;10.57;;;7.55;;
22429;SDS011;11382;48.086;11.632;2024-03-02T11:04:41;9.75;;;7.30;;
22429;SDS011;11382;48.086;11.632;2024-03-02T11:07:11;11.23;;;7.82;;
22429;SDS011;11382;48.086;11.632;2024-03-02T11:09:41;10.88;;;7.63;;
22429;SDS011;11382;48.086;11.632;2024-03-02T11:12:19;10.93;;;8.18;;
22429;SDS011;11382;48.086;11.632;2024-03-02T11:14:55;10.90;;;8.48;;
22429;SDS011;11382;48.086;11.632;2024-03-02T11:17:23;11.93;;;8.55;;
22429;SDS011;11382;48.086;11.632;2024-03-02T11:19:53;13.25;;;8.85;;
22429;SDS011;11382;48.086;11.632;2024-03-02T11:22:22;11.02;;;8.00;;
22429;SDS011;11382;48.086;11.632;2024-03-02T11:24:51;10.52;;;8.00;;
22429;SDS011;11382;48.086;11.632;2024-03-02T11:33:24;10.13;;;7.53;;
22429;SDS011;11382;48.086;11.632;2024-03-02T11:35:57;8.95;;;6.68;;
22429;SDS011;11382;48.086;11.632;2024-03-02T11:38:33;10.18;;;6.68;;
22429;SDS011;11382;48.086;11.632;2024-03-02T11:41:02;11.93;;;5.97;;
22429;SDS011;11382;48.086;11.632;2024-03-02T11:43:33;8.23;;;6.05;;
22429;SDS011;11382;48.086;11.632;2024-03-02T11:46:05;7.63;;;6.20;;
22429;SDS011;11382;48.086;11.632;2024-03-02T11:48:35;8.30;;;6.05;;
22429;SDS011;11382;48.086;11.632;2024-03-02T11:51:04;8.50;;;6.38;;
22429;SDS011;11382;48.086;11.632;2024-03-02T11:53:33;8.30;;;5.63;;
22429;SDS011;11382;48.086;11.632;2024-03-02T11:56:02;7.53;;;5.25;;
22429;SDS011;11382;48.086;11.632;2024-03-02T11:58:35;9.40;;;5.68;;
22429;SDS011;11382;48.086;11.632;2024-03-02T12:01:04;7.68;;;6.00;;
22429;SDS011;11382;48.086;11.632;2024-03-02T12:03:32;9.55;;;6.35;;
22429;SDS011;11382;48.086;11.632;2024-03-02T12:06:02;9.95;;;6.40;;
22429;SDS011;11382;48.086;11.632;2024-03-02T12:08:33;9.52;;;7.00;;
22429;SDS011;11382;48.086;11.632;2024-03-02T12:11:02;8.90;;;6.68;;
22429;SDS011;11382;48.086;11.632;2024-03-02T12:13:32;10.60;;;6.68;;
22429;SDS011;11382;48.086;11.632;2024-03-02T12:16:00;9.63;;;6.90;;
22429;SDS011;11382;48.086;11.632;2024-03-02T12:18:29;7.43;;;5.68;;
22429;SDS011;11382;48.086;11.632;2024-03-02T12:20:57;10.93;;;6.85;;
22429;SDS011;11382;48.086;11.632;2024-03-02T12:23:25;10.50;;;6.28;;
22429;SDS011;11382;48.086;11.632;2024-03-02T12:25:55;12.80;;;6.32;;
22429;SDS011;11382;48.086;11.632;2024-03-02T12:28:23;9.40;;;5.60;;
22429;SDS011;11382;48.086;11.632;2024-03-02T12:30:51;8.32;;;5.40;;
22429;SDS011;11382;48.086;11.632;2024-03-02T12:33:19;7.80;;;5.22;;
22429;SDS011;11382;48.086;11.632;2024-03-02T12:35:48;8.65;;;5.55;;
22429;SDS011;11382;48.086;11.632;2024-03-02T12:38:17;8.18;;;4.57;;
22429;SDS011;11382;48.086;11.632;2024-03-02T12:40:47;6.68;;;4.68;;
22429;SDS011;11382;48.086;11.632;2024-03-02T12:43:17;8.48;;;4.85;;
22429;SDS011;11382;48.086;11.632;2024-03-02T12:45:45;7.45;;;5.60;;
22429;SDS011;11382;48.086;11.632;2024-03-02T12:48:14;10.50;;;5.95;;
22429;SDS011;11382;48.086;11.632;2024-03-02T12:50:42;9.68;;;5.80;;
22429;SDS011;11382;48.086;11.632;2024-03-02T12:53:14;8.27;;;6.28;;
22429;SDS011;11382;48.086;11.632;2024-03-02T12:55:43;8.20;;;5.57;;
22429;SDS011;11382;48.086;11.632;2024-03-02T12:58:18;7.90;;;5.45;;
22429;SDS011;11382;48.086;11.632;2024-03-02T13:00:47;7.95;;;5.38;;
22429;SDS011;11382;48.086;11.632;2024-03-02T13:03:17;6.80;;;4.63;;
22429;SDS011;11382;48.086;11.632;2024-03-02T13:05:50;6.22;;;4.00;;
22429;SDS011;11382;48.086;11.632;2024-03-02T13:08:18;4.25;;;2.70;;
22429;SDS011;11382;48.086;11.632;2024-03-02T13:10:46;7.63;;;3.10;;
22429;SDS011;11382;48.086;11.632;2024-03-02T13:13:14;6.35;;;4.15;;
22429;SDS011;11382;48.086;11.632;2024-03-02T13:15:43;8.32;;;4.63;;
22429;SDS011;11382;48.086;11.632;2024-03-02T13:18:12;6.78;;;4.05;;
22429;SDS011;11382;48.086;11.632;2024-03-02T13:20:40;7.95;;;5.10;;
22429;SDS011;11382;48.086;11.632;2024-03-02T13:23:08;7.57;;;3.85;;
22429;SDS011;11382;48.086;11.632;2024-03-02T13:25:38;6.75;;;4.25;;
22429;SDS011;11382;48.086;11.632;2024-03-02T13:28:06;5.35;;;3.60;;
22429;SDS011;11382;48.086;11.632;2024-03-02T13:30:35;5.15;;;3.13;;
22429;SDS011;11382;48.086;11.632;2024-03-02T13:33:04;9.25;;;4.03;;
22429;SDS011;11382;48.086;11.632;2024-03-02T13:35:32;8.05;;;5.13;;
22429;SDS011;11382;48.086;11.632;2024-03-02T13:38:00;8.88;;;6.03;;
22429;SDS011;11382;48.086;11.632;2024-03-02T13:40:28;9.63;;;6.72;;
22429;SDS011;11382;48.086;11.632;2024-03-02T13:43:01;12.57;;;8.20;;
22429;SDS011;11382;48.086;11.632;2024-03-02T13:45:30;11.30;;;7.50;;
22429;SDS011;11382;48.086;11.632;2024-03-02T13:47:58;11.65;;;7.75;;
22429;SDS011;11382;48.086;11.632;2024-03-02T13:50:29;10.30;;;7.30;;
22429;SDS011;11382;48.086;11.632;2024-03-02T13:52:57;11.60;;;7.13;;
22429;SDS011;11382;48.086;11.632;2024-03-02T13:55:26;11.02;;;7.03;;
22429;SDS011;11382;48.086;11.632;2024-03-02T13:57:54;10.73;;;6.95;;
22429;SDS011;11382;48.086;11.632;2024-03-02T14:00:22;14.40;;;8.48;;
22429;SDS011;11382;48.086;11.632;2024-03-02T14:02:50;12.07;;;6.80;;
22429;SDS011;11382;48.086;11.632;2024-03-02T14:05:18;9.60;;;6.15;;
22429;SDS011;11382;48.086;11.632;2024-03-02T14:07:47;9.65;;;5.90;;
22429;SDS011;11382;48.086;11.632;2024-03-02T14:10:15;8.30;;;5.05;;
22429;SDS011;11382;48.086;11.632;2024-03-02T14:12:44;9.32;;;5.57;;
22429;SDS011;11382;48.086;11.632;2024-03-02T14:15:12;10.13;;;5.38;;
22429;SDS011;11382;48.086;11.632;2024-03-02T14:17:43;10.20;;;5.25;;
22429;SDS011;11382;48.086;11.632;2024-03-02T14:20:11;10.52;;;5.93;;
22429;SDS011;11382;48.086;11.632;2024-03-02T14:22:40;9.75;;;5.80;;
22429;SDS011;11382;48.086;11.632;2024-03-02T14:25:09;12.45;;;6.15;;
22429;SDS011;11382;48.086;11.632;2024-03-02T14:27:37;10.68;;;6.53;;
22429;SDS011;11382;48.086;11.632;2024-03-02T14:30:25;9.25;;;5.50;;
22429;SDS011;11382;48.086;11.632;2024-03-02T14:32:53;9.45;;;6.57;;
22429;SDS011;11382;48.086;11.632;2024-03-02T14:35:22;10.45;;;6.93;;
22429;SDS011;11382;48.086;11.632;2024-03-02T14:37:50;12.23;;;6.32;;
22429;SDS011;11382;48.086;11.632;2024-03-02T14:40:20;12.52;;;6.97;;